sensor_id;sensor_type;location;lat;lon;timestamp;pressure;altitude;pressure_sealevel;temperature;humidity
51439;BME280;38816;51.142;-0.974;2023-02-14T00:01:58;101677.78;;;2.10;100.00
51439;BME280;38816;51.142;-0.974;2023-02-14T00:04:23;101686.25;;;2.11;100.00
51439;BME280;38816;51.142;-0.974;2023-02-14T00:06:48;101684.16;;;2.05;100.00
51439;BME280;38816;51.142;-0.974;2023-02-14T00:09:16;101684.38;;;1.96;100.00
51439;BME280;38816;51.142;-0.974;2023-02-14T00:11:43;101679.97;;;1.94;100.00
51439;BME280;38816;51.142;-0.974;2023-02-14T00:14:09;101666.03;;;1.89;100.00
51439;BME280;38816;51.142;-0.974;2023-02-14T00:16:53;101681.25;;;1.89;100.00
51439;BME280;38816;51.142;-0.974;2023-02-14T00:19:19;101667.16;;;1.81;100.00
51439;BME280;38816;51.142;-0.974;2023-02-14T00:21:46;101668.91;;;1.82;100.00
51439;BME280;38816;51.142;-0.974;2023-02-14T00:24:17;101671.31;;;1.80;100.00
51439;BME280;38816;51.142;-0.974;2023-02-14T00:26:43;101662.50;;;1.75;100.00
51439;BME280;38816;51.142;-0.974;2023-02-14T00:29:13;101668.88;;;1.70;100.00
51439;BME280;38816;51.142;-0.974;2023-02-14T00:31:39;101671.84;;;1.64;100.00
51439;BME280;38816;51.142;-0.974;2023-02-14T00:34:05;101668.31;;;1.62;100.00
51439;BME280;38816;51.142;-0.974;2023-02-14T00:36:31;101663.78;;;1.58;100.00
51439;BME280;38816;51.142;-0.974;2023-02-14T00:38:57;101663.31;;;1.52;100.00
51439;BME280;38816;51.142;-0.974;2023-02-14T00:41:23;101671.50;;;1.60;100.00
51439;BME280;38816;51.142;-0.974;2023-02-14T00:43:50;101657.13;;;1.48;100.00
51439;BME280;38816;51.142;-0.974;2023-02-14T00:46:19;101665.16;;;1.43;100.00
51439;BME280;38816;51.142;-0.974;2023-02-14T00:48:45;101658.84;;;1.38;100.00
51439;BME280;38816;51.142;-0.974;2023-02-14T00:51:11;101656.75;;;1.32;100.00
51439;BME280;38816;51.142;-0.974;2023-02-14T00:53:36;101673.94;;;1.36;100.00
51439;BME280;38816;51.142;-0.974;2023-02-14T00:56:03;101660.69;;;1.29;100.00
51439;BME280;38816;51.142;-0.974;2023-02-14T00:58:29;101656.41;;;1.27;100.00
51439;BME280;38816;51.142;-0.974;2023-02-14T01:00:55;101664.00;;;1.27;100.00
51439;BME280;38816;51.142;-0.974;2023-02-14T01:03:20;101666.28;;;1.24;100.00
51439;BME280;38816;51.142;-0.974;2023-02-14T01:05:46;101653.69;;;1.14;100.00
51439;BME280;38816;51.142;-0.974;2023-02-14T01:08:12;101646.53;;;1.09;100.00
51439;BME280;38816;51.142;-0.974;2023-02-14T01:10:38;101667.41;;;1.06;100.00
51439;BME280;38816;51.142;-0.974;2023-02-14T01:13:04;101643.44;;;0.91;100.00
51439;BME280;38816;51.142;-0.974;2023-02-14T01:15:31;101655.81;;;0.98;100.00
51439;BME280;38816;51.142;-0.974;2023-02-14T01:17:57;101652.69;;;0.90;100.00
51439;BME280;38816;51.142;-0.974;2023-02-14T01:20:23;101663.34;;;0.86;100.00
51439;BME280;38816;51.142;-0.974;2023-02-14T01:22:48;101658.91;;;0.84;100.00
51439;BME280;38816;51.142;-0.974;2023-02-14T01:25:14;101645.78;;;0.78;100.00
51439;BME280;38816;51.142;-0.974;2023-02-14T01:27:39;101654.38;;;0.80;100.00
51439;BME280;38816;51.142;-0.974;2023-02-14T01:30:05;101659.19;;;0.76;100.00
51439;BME280;38816;51.142;-0.974;2023-02-14T01:32:31;101649.63;;;0.72;100.00
51439;BME280;38816;51.142;-0.974;2023-02-14T01:34:57;101663.34;;;0.86;100.00
51439;BME280;38816;51.142;-0.974;2023-02-14T01:37:23;101653.31;;;0.88;100.00
51439;BME280;38816;51.142;-0.974;2023-02-14T01:39:48;101662.41;;;0.96;100.00
51439;BME280;38816;51.142;-0.974;2023-02-14T01:42:14;101661.47;;;1.06;100.00
51439;BME280;38816;51.142;-0.974;2023-02-14T01:47:07;101664.53;;;1.23;100.00
51439;BME280;38816;51.142;-0.974;2023-02-14T01:49:40;101655.63;;;1.29;100.00
51439;BME280;38816;51.142;-0.974;2023-02-14T01:52:13;101658.84;;;1.38;100.00
51439;BME280;38816;51.142;-0.974;2023-02-14T01:54:50;101653.69;;;1.36;100.00
51439;BME280;38816;51.142;-0.974;2023-02-14T01:57:19;101652.28;;;1.40;100.00
51439;BME280;38816;51.142;-0.974;2023-02-14T01:59:51;101645.41;;;1.39;100.00
51439;BME280;38816;51.142;-0.974;2023-02-14T02:02:19;101655.59;;;1.50;100.00
51439;BME280;38816;51.142;-0.974;2023-02-14T02:04:50;101655.94;;;1.55;100.00
51439;BME280;38816;51.142;-0.974;2023-02-14T02:07:22;101650.78;;;1.54;100.00
51439;BME280;38816;51.142;-0.974;2023-02-14T02:09:53;101641.88;;;1.59;100.00
51439;BME280;38816;51.142;-0.974;2023-02-14T02:12:20;101644.84;;;1.65;100.00
51439;BME280;38816;51.142;-0.974;2023-02-14T02:14:46;101629.63;;;1.65;100.00
51439;BME280;38816;51.142;-0.974;2023-02-14T02:17:24;101635.81;;;1.68;100.00
51439;BME280;38816;51.142;-0.974;2023-02-14T02:37:33;101651.94;;;1.47;100.00
51439;BME280;38816;51.142;-0.974;2023-02-14T02:45:50;101641.91;;;1.37;100.00
51439;BME280;38816;51.142;-0.974;2023-02-14T02:48:50;101633.94;;;1.32;100.00
51439;BME280;38816;51.142;-0.974;2023-02-14T02:51:31;101649.41;;;1.35;100.00
51439;BME280;38816;51.142;-0.974;2023-02-14T02:54:43;101653.34;;;1.32;100.00
51439;BME280;38816;51.142;-0.974;2023-02-14T02:57:27;101633.88;;;1.20;100.00
51439;BME280;38816;51.142;-0.974;2023-02-14T02:59:54;101622.63;;;1.17;100.00
51439;BME280;38816;51.142;-0.974;2023-02-14T03:02:24;101630.38;;;1.18;100.00
51439;BME280;38816;51.142;-0.974;2023-02-14T03:04:58;101629.66;;;1.09;100.00
51439;BME280;38816;51.142;-0.974;2023-02-14T03:07:44;101639.91;;;1.11;100.00
51439;BME280;38816;51.142;-0.974;2023-02-14T03:13:06;101631.25;;;0.97;100.00
51439;BME280;38816;51.142;-0.974;2023-02-14T03:24:50;101623.28;;;0.70;100.00
51439;BME280;38816;51.142;-0.974;2023-02-14T03:27:31;101629.00;;;0.68;100.00
51439;BME280;38816;51.142;-0.974;2023-02-14T03:30:07;101630.06;;;0.60;100.00
51439;BME280;38816;51.142;-0.974;2023-02-14T03:32:40;101629.34;;;0.50;100.00
51439;BME280;38816;51.142;-0.974;2023-02-14T03:35:37;101634.28;;;0.39;100.00
51439;BME280;38816;51.142;-0.974;2023-02-14T03:38:10;101624.22;;;0.29;100.00
51439;BME280;38816;51.142;-0.974;2023-02-14T03:41:02;101621.06;;;0.21;100.00
51439;BME280;38816;51.142;-0.974;2023-02-14T03:43:50;101619.72;;;0.14;100.00
51439;BME280;38816;51.142;-0.974;2023-02-14T03:46:25;101619.09;;;0.07;100.00
51439;BME280;38816;51.142;-0.974;2023-02-14T03:48:53;101617.84;;;0.02;100.00
51439;BME280;38816;51.142;-0.974;2023-02-14T03:51:22;101619.47;;;-0.09;100.00
51439;BME280;38816;51.142;-0.974;2023-02-14T03:53:52;101611.81;;;-0.21;100.00
51439;BME280;38816;51.142;-0.974;2023-02-14T03:59:00;101606.66;;;-0.43;100.00
51439;BME280;38816;51.142;-0.974;2023-02-14T04:01:49;101616.00;;;-0.52;100.00
51439;BME280;38816;51.142;-0.974;2023-02-14T04:04:19;101618.78;;;-0.49;100.00
51439;BME280;38816;51.142;-0.974;2023-02-14T04:06:45;101615.09;;;-0.53;100.00
51439;BME280;38816;51.142;-0.974;2023-02-14T04:09:11;101613.72;;;-0.49;100.00
51439;BME280;38816;51.142;-0.974;2023-02-14T04:11:37;101622.03;;;-0.50;100.00
51439;BME280;38816;51.142;-0.974;2023-02-14T04:14:03;101624.44;;;-0.52;100.00
51439;BME280;38816;51.142;-0.974;2023-02-14T04:16:29;101627.34;;;-0.47;100.00
51439;BME280;38816;51.142;-0.974;2023-02-14T04:18:54;101635.03;;;-0.45;100.00
51439;BME280;38816;51.142;-0.974;2023-02-14T04:21:44;101623.06;;;-0.48;100.00
51439;BME280;38816;51.142;-0.974;2023-02-14T04:24:10;101619.50;;;-0.50;100.00
51439;BME280;38816;51.142;-0.974;2023-02-14T04:26:35;101615.72;;;-0.55;100.00
51439;BME280;38816;51.142;-0.974;2023-02-14T04:29:00;101631.25;;;-0.51;100.00
51439;BME280;38816;51.142;-0.974;2023-02-14T04:31:26;101623.06;;;-0.58;100.00
51439;BME280;38816;51.142;-0.974;2023-02-14T04:33:51;101621.03;;;-0.62;100.00
51439;BME280;38816;51.142;-0.974;2023-02-14T04:36:17;101635.44;;;-0.61;100.00
51439;BME280;38816;51.142;-0.974;2023-02-14T04:38:42;101642.50;;;-0.67;100.00
51439;BME280;38816;51.142;-0.974;2023-02-14T04:41:07;101616.59;;;-0.85;100.00
51439;BME280;38816;51.142;-0.974;2023-02-14T04:43:33;101619.63;;;-0.89;100.00
51439;BME280;38816;51.142;-0.974;2023-02-14T04:46:04;101624.28;;;-0.94;100.00
51439;BME280;38816;51.142;-0.974;2023-02-14T04:48:30;101632.09;;;-0.91;100.00
51439;BME280;38816;51.142;-0.974;2023-02-14T04:50:55;101633.63;;;-0.93;100.00
51439;BME280;38816;51.142;-0.974;2023-02-14T04:53:21;101612.94;;;-0.99;100.00
51439;BME280;38816;51.142;-0.974;2023-02-14T04:55:49;101628.84;;;-0.90;100.00
51439;BME280;38816;51.142;-0.974;2023-02-14T04:58:15;101606.47;;;-0.95;100.00
51439;BME280;38816;51.142;-0.974;2023-02-14T05:03:05;101617.97;;;-0.99;100.00
51439;BME280;38816;51.142;-0.974;2023-02-14T05:05:31;101608.09;;;-1.06;100.00
51439;BME280;38816;51.142;-0.974;2023-02-14T05:07:56;101625.41;;;-1.00;100.00
51439;BME280;38816;51.142;-0.974;2023-02-14T05:10:21;101614.03;;;-1.06;100.00
51439;BME280;38816;51.142;-0.974;2023-02-14T05:12:47;101629.94;;;-0.96;100.00
51439;BME280;38816;51.142;-0.974;2023-02-14T05:15:12;101626.53;;;-0.97;100.00
51439;BME280;38816;51.142;-0.974;2023-02-14T05:17:37;101627.69;;;-0.93;100.00
51439;BME280;38816;51.142;-0.974;2023-02-14T05:20:04;101631.38;;;-0.90;100.00
51439;BME280;38816;51.142;-0.974;2023-02-14T05:22:30;101629.84;;;-0.88;100.00
51439;BME280;38816;51.142;-0.974;2023-02-14T05:24:55;101627.81;;;-0.82;100.00
51439;BME280;38816;51.142;-0.974;2023-02-14T05:27:21;101623.31;;;-0.75;100.00
51439;BME280;38816;51.142;-0.974;2023-02-14T05:29:46;101615.22;;;-0.71;100.00
51439;BME280;38816;51.142;-0.974;2023-02-14T05:32:12;101618.25;;;-0.65;100.00
51439;BME280;38816;51.142;-0.974;2023-02-14T05:34:37;101620.00;;;-0.64;100.00
51439;BME280;38816;51.142;-0.974;2023-02-14T05:37:02;101619.25;;;-0.63;100.00
51439;BME280;38816;51.142;-0.974;2023-02-14T05:39:28;101611.28;;;-0.68;100.00
51439;BME280;38816;51.142;-0.974;2023-02-14T05:41:54;101620.94;;;-0.54;100.00
51439;BME280;38816;51.142;-0.974;2023-02-14T05:44:20;101617.63;;;-0.53;100.00
51439;BME280;38816;51.142;-0.974;2023-02-14T05:46:46;101612.84;;;-0.49;100.00
51439;BME280;38816;51.142;-0.974;2023-02-14T05:49:11;101618.66;;;-0.40;100.00
51439;BME280;38816;51.142;-0.974;2023-02-14T05:51:36;101614.09;;;-0.34;100.00
51439;BME280;38816;51.142;-0.974;2023-02-14T05:54:02;101613.44;;;-0.32;100.00
51439;BME280;38816;51.142;-0.974;2023-02-14T05:56:27;101613.69;;;-0.29;100.00
51439;BME280;38816;51.142;-0.974;2023-02-14T05:58:53;101617.88;;;-0.29;100.00
51439;BME280;38816;51.142;-0.974;2023-02-14T06:01:18;101616.13;;;-0.30;100.00
51439;BME280;38816;51.142;-0.974;2023-02-14T06:03:44;101606.63;;;-0.33;100.00
51439;BME280;38816;51.142;-0.974;2023-02-14T06:06:09;101615.97;;;-0.21;100.00
51439;BME280;38816;51.142;-0.974;2023-02-14T06:08:35;101617.50;;;-0.13;100.00
51439;BME280;38816;51.142;-0.974;2023-02-14T06:11:00;101601.03;;;-0.18;100.00
51439;BME280;38816;51.142;-0.974;2023-02-14T06:13:25;101620.50;;;-0.07;100.00
51439;BME280;38816;51.142;-0.974;2023-02-14T06:15:51;101612.81;;;-0.09;100.00
51439;BME280;38816;51.142;-0.974;2023-02-14T06:18:16;101621.38;;;-0.07;100.00
51439;BME280;38816;51.142;-0.974;2023-02-14T06:20:42;101619.22;;;-0.02;100.00
51439;BME280;38816;51.142;-0.974;2023-02-14T06:23:07;101616.81;;;-0.01;100.00
51439;BME280;38816;51.142;-0.974;2023-02-14T06:25:32;101624.78;;;-0.06;100.00
51439;BME280;38816;51.142;-0.974;2023-02-14T06:27:58;101618.09;;;-0.06;100.00
51439;BME280;38816;51.142;-0.974;2023-02-14T06:30:24;101615.34;;;-0.09;100.00
51439;BME280;38816;51.142;-0.974;2023-02-14T06:32:50;101620.09;;;0.09;100.00
51439;BME280;38816;51.142;-0.974;2023-02-14T06:35:15;101626.41;;;0.14;100.00
51439;BME280;38816;51.142;-0.974;2023-02-14T06:37:41;101636.34;;;0.22;100.00
51439;BME280;38816;51.142;-0.974;2023-02-14T06:40:09;101622.31;;;0.26;100.00
51439;BME280;38816;51.142;-0.974;2023-02-14T06:42:34;101629.13;;;0.37;100.00
51439;BME280;38816;51.142;-0.974;2023-02-14T06:45:00;101620.28;;;0.32;100.00
51439;BME280;38816;51.142;-0.974;2023-02-14T06:47:26;101631.00;;;0.40;100.00
51439;BME280;38816;51.142;-0.974;2023-02-14T06:49:52;101638.22;;;0.45;100.00
51439;BME280;38816;51.142;-0.974;2023-02-14T06:52:17;101640.34;;;0.51;100.00
51439;BME280;38816;51.142;-0.974;2023-02-14T06:54:42;101643.13;;;0.54;100.00
51439;BME280;38816;51.142;-0.974;2023-02-14T06:57:08;101632.22;;;0.55;100.00
51439;BME280;38816;51.142;-0.974;2023-02-14T06:59:33;101641.53;;;0.66;100.00
51439;BME280;38816;51.142;-0.974;2023-02-14T07:01:59;101627.22;;;0.67;100.00
51439;BME280;38816;51.142;-0.974;2023-02-14T07:04:24;101636.97;;;0.72;100.00
51439;BME280;38816;51.142;-0.974;2023-02-14T07:06:50;101638.84;;;0.75;100.00
51439;BME280;38816;51.142;-0.974;2023-02-14T07:09:15;101642.06;;;0.84;100.00
51439;BME280;38816;51.142;-0.974;2023-02-14T07:11:43;101639.13;;;0.90;100.00
51439;BME280;38816;51.142;-0.974;2023-02-14T07:14:09;101640.59;;;0.98;100.00
51439;BME280;38816;51.142;-0.974;2023-02-14T07:16:34;101639.97;;;1.00;100.00
51439;BME280;38816;51.142;-0.974;2023-02-14T07:19:00;101641.31;;;1.07;100.00
51439;BME280;38816;51.142;-0.974;2023-02-14T07:21:25;101636.25;;;1.07;100.00
51439;BME280;38816;51.142;-0.974;2023-02-14T07:23:50;101632.72;;;1.05;100.00
51439;BME280;38816;51.142;-0.974;2023-02-14T07:26:16;101647.09;;;1.16;100.00
51439;BME280;38816;51.142;-0.974;2023-02-14T07:28:45;101631.19;;;1.07;100.00
51439;BME280;38816;51.142;-0.974;2023-02-14T07:31:12;101634.94;;;1.12;100.00
51439;BME280;38816;51.142;-0.974;2023-02-14T07:33:38;101646.44;;;1.19;100.00
51439;BME280;38816;51.142;-0.974;2023-02-14T07:36:08;101638.50;;;1.14;100.00
51439;BME280;38816;51.142;-0.974;2023-02-14T07:38:34;101652.63;;;1.22;100.00
51439;BME280;38816;51.142;-0.974;2023-02-14T07:41:00;101649.09;;;1.20;100.00
51439;BME280;38816;51.142;-0.974;2023-02-14T07:43:25;101641.50;;;1.20;100.00
51439;BME280;38816;51.142;-0.974;2023-02-14T07:45:51;101654.84;;;1.30;100.00
51439;BME280;38816;51.142;-0.974;2023-02-14T07:48:16;101665.22;;;1.33;100.00
51439;BME280;38816;51.142;-0.974;2023-02-14T07:50:41;101650.66;;;1.30;100.00
51439;BME280;38816;51.142;-0.974;2023-02-14T07:53:07;101652.28;;;1.40;100.00
51439;BME280;38816;51.142;-0.974;2023-02-14T07:55:33;101663.50;;;1.43;100.00
51439;BME280;38816;51.142;-0.974;2023-02-14T07:57:59;101655.59;;;1.50;100.00
51439;BME280;38816;51.142;-0.974;2023-02-14T08:00:24;101653.41;;;1.55;100.00
51439;BME280;38816;51.142;-0.974;2023-02-14T08:02:49;101651.13;;;1.70;100.00
51439;BME280;38816;51.142;-0.974;2023-02-14T08:05:15;101647.19;;;1.73;100.00
51439;BME280;38816;51.142;-0.974;2023-02-14T08:07:40;101658.00;;;1.83;100.00
51439;BME280;38816;51.142;-0.974;2023-02-14T08:10:07;101666.81;;;1.88;100.00
51439;BME280;38816;51.142;-0.974;2023-02-14T08:12:32;101653.03;;;1.84;100.00
51439;BME280;38816;51.142;-0.974;2023-02-14T08:15:16;101641.81;;;1.81;100.00
51439;BME280;38816;51.142;-0.974;2023-02-14T08:18:00;101659.91;;;1.97;100.00
51439;BME280;38816;51.142;-0.974;2023-02-14T08:20:25;101661.88;;;2.01;100.00
51439;BME280;38816;51.142;-0.974;2023-02-14T08:22:51;101652.84;;;2.05;100.00
51439;BME280;38816;51.142;-0.974;2023-02-14T08:25:17;101661.91;;;2.13;100.00
51439;BME280;38816;51.142;-0.974;2023-02-14T08:27:42;101672.50;;;2.19;100.00
51439;BME280;38816;51.142;-0.974;2023-02-14T08:30:08;101665.66;;;2.18;100.00
51439;BME280;38816;51.142;-0.974;2023-02-14T08:32:33;101663.13;;;2.18;100.00
51439;BME280;38816;51.142;-0.974;2023-02-14T08:34:59;101660.81;;;2.21;100.00
51439;BME280;38816;51.142;-0.974;2023-02-14T08:37:24;101658.28;;;2.33;100.00
51439;BME280;38816;51.142;-0.974;2023-02-14T08:39:49;101666.22;;;2.49;100.00
51439;BME280;38816;51.142;-0.974;2023-02-14T08:42:15;101656.16;;;2.50;100.00
51439;BME280;38816;51.142;-0.974;2023-02-14T08:44:40;101667.09;;;2.61;100.00
51439;BME280;38816;51.142;-0.974;2023-02-14T08:47:05;101673.59;;;2.69;100.00
51439;BME280;38816;51.142;-0.974;2023-02-14T08:49:31;101667.63;;;2.81;100.00
51439;BME280;38816;51.142;-0.974;2023-02-14T08:51:56;101669.59;;;2.85;100.00
51439;BME280;38816;51.142;-0.974;2023-02-14T08:54:21;101668.91;;;2.99;100.00
51439;BME280;38816;51.142;-0.974;2023-02-14T08:56:47;101671.19;;;3.08;100.00
51439;BME280;38816;51.142;-0.974;2023-02-14T08:59:12;101664.38;;;3.07;100.00
51439;BME280;38816;51.142;-0.974;2023-02-14T09:01:38;101670.19;;;3.17;100.00
51439;BME280;38816;51.142;-0.974;2023-02-14T09:04:03;101662.00;;;3.21;100.00
51439;BME280;38816;51.142;-0.974;2023-02-14T09:06:29;101661.75;;;3.30;100.00
51439;BME280;38816;51.142;-0.974;2023-02-14T09:08:54;101640.06;;;3.35;100.00
51439;BME280;38816;51.142;-0.974;2023-02-14T09:11:22;101656.53;;;3.53;100.00
51439;BME280;38816;51.142;-0.974;2023-02-14T09:13:49;101655.72;;;3.66;100.00
51439;BME280;38816;51.142;-0.974;2023-02-14T09:16:16;101643.50;;;3.74;100.00
51439;BME280;38816;51.142;-0.974;2023-02-14T09:18:43;101638.56;;;3.89;100.00
51439;BME280;38816;51.142;-0.974;2023-02-14T09:21:11;101652.25;;;4.04;100.00
51439;BME280;38816;51.142;-0.974;2023-02-14T09:23:37;101642.88;;;4.16;100.00
51439;BME280;38816;51.142;-0.974;2023-02-14T09:26:04;101641.00;;;4.27;100.00
51439;BME280;38816;51.142;-0.974;2023-02-14T09:28:30;101640.44;;;4.31;100.00
51439;BME280;38816;51.142;-0.974;2023-02-14T09:30:56;101651.69;;;4.48;100.00
51439;BME280;38816;51.142;-0.974;2023-02-14T09:33:22;101631.53;;;4.51;100.00
51439;BME280;38816;51.142;-0.974;2023-02-14T09:35:48;101653.34;;;4.74;100.00
51439;BME280;38816;51.142;-0.974;2023-02-14T09:38:32;101633.63;;;4.71;100.00
51439;BME280;38816;51.142;-0.974;2023-02-14T09:40:58;101649.97;;;4.88;100.00
51439;BME280;38816;51.142;-0.974;2023-02-14T09:46:00;101652.41;;;5.00;100.00
51439;BME280;38816;51.142;-0.974;2023-02-14T09:48:33;101639.75;;;5.01;100.00
51439;BME280;38816;51.142;-0.974;2023-02-14T09:51:07;101644.25;;;5.05;100.00
51439;BME280;38816;51.142;-0.974;2023-02-14T09:53:40;101634.75;;;5.03;100.00
51439;BME280;38816;51.142;-0.974;2023-02-14T10:01:30;101631.81;;;5.25;100.00
51439;BME280;38816;51.142;-0.974;2023-02-14T10:11:56;101630.31;;;5.56;100.00
51439;BME280;38816;51.142;-0.974;2023-02-14T10:14:25;101641.03;;;5.66;100.00
51439;BME280;38816;51.142;-0.974;2023-02-14T10:17:00;101621.50;;;5.66;100.00
51439;BME280;38816;51.142;-0.974;2023-02-14T10:19:45;101620.47;;;5.77;100.00
51439;BME280;38816;51.142;-0.974;2023-02-14T10:22:22;101630.19;;;5.98;100.00
51439;BME280;38816;51.142;-0.974;2023-02-14T10:25:02;101627.38;;;6.08;100.00
51439;BME280;38816;51.142;-0.974;2023-02-14T10:27:38;101631.41;;;6.19;100.00
51439;BME280;38816;51.142;-0.974;2023-02-14T10:30:22;101631.38;;;6.34;100.00
51439;BME280;38816;51.142;-0.974;2023-02-14T10:32:53;101634.34;;;6.42;100.00
51439;BME280;38816;51.142;-0.974;2023-02-14T10:38:19;101633.00;;;6.63;100.00
51439;BME280;38816;51.142;-0.974;2023-02-14T10:43:32;101637.91;;;6.60;100.00
51439;BME280;38816;51.142;-0.974;2023-02-14T10:52:21;101609.56;;;7.19;100.00
51439;BME280;38816;51.142;-0.974;2023-02-14T10:54:54;101621.78;;;7.41;100.00
51439;BME280;38816;51.142;-0.974;2023-02-14T10:57:31;101613.53;;;7.47;100.00
51439;BME280;38816;51.142;-0.974;2023-02-14T11:00:22;101604.31;;;7.50;100.00
51439;BME280;38816;51.142;-0.974;2023-02-14T11:02:58;101612.50;;;7.43;100.00
51439;BME280;38816;51.142;-0.974;2023-02-14T11:05:45;101617.34;;;7.55;100.00
51439;BME280;38816;51.142;-0.974;2023-02-14T11:08:26;101619.19;;;7.57;100.00
51439;BME280;38816;51.142;-0.974;2023-02-14T11:11:03;101610.47;;;7.54;100.00
51439;BME280;38816;51.142;-0.974;2023-02-14T11:16:01;101593.63;;;7.57;100.00
51439;BME280;38816;51.142;-0.974;2023-02-14T11:18:28;101604.38;;;7.68;100.00
51439;BME280;38816;51.142;-0.974;2023-02-14T11:21:14;101589.25;;;7.73;100.00
51439;BME280;38816;51.142;-0.974;2023-02-14T11:23:47;101602.22;;;7.94;100.00
51439;BME280;38816;51.142;-0.974;2023-02-14T11:26:20;101601.00;;;8.03;100.00
51439;BME280;38816;51.142;-0.974;2023-02-14T11:29:03;101600.72;;;8.15;100.00
51439;BME280;38816;51.142;-0.974;2023-02-14T11:31:43;101596.38;;;8.14;100.00
51439;BME280;38816;51.142;-0.974;2023-02-14T11:34:29;101592.34;;;8.19;100.00
51439;BME280;38816;51.142;-0.974;2023-02-14T11:36:55;101596.69;;;8.20;100.00
51439;BME280;38816;51.142;-0.974;2023-02-14T11:39:29;101608.47;;;8.34;100.00
51439;BME280;38816;51.142;-0.974;2023-02-14T11:41:58;101598.00;;;8.30;100.00
51439;BME280;38816;51.142;-0.974;2023-02-14T11:44:26;101603.66;;;8.41;100.00
51439;BME280;38816;51.142;-0.974;2023-02-14T11:46:54;101592.13;;;8.50;100.00
51439;BME280;38816;51.142;-0.974;2023-02-14T11:49:29;101596.56;;;8.72;100.00
51439;BME280;38816;51.142;-0.974;2023-02-14T11:51:57;101590.97;;;8.81;100.00
51439;BME280;38816;51.142;-0.974;2023-02-14T11:54:27;101586.88;;;8.84;100.00
51439;BME280;38816;51.142;-0.974;2023-02-14T11:56:55;101583.91;;;8.95;100.00
51439;BME280;38816;51.142;-0.974;2023-02-14T11:59:44;101569.38;;;8.95;100.00
51439;BME280;38816;51.142;-0.974;2023-02-14T12:02:39;101575.94;;;8.88;100.00
51439;BME280;38816;51.142;-0.974;2023-02-14T12:05:27;101577.59;;;8.69;100.00
51439;BME280;38816;51.142;-0.974;2023-02-14T12:07:56;101565.56;;;8.48;100.00
51439;BME280;38816;51.142;-0.974;2023-02-14T12:10:31;101570.91;;;8.53;100.00
51439;BME280;38816;51.142;-0.974;2023-02-14T12:12:59;101571.41;;;8.46;100.00
51439;BME280;38816;51.142;-0.974;2023-02-14T12:24:14;101546.31;;;8.21;100.00
51439;BME280;38816;51.142;-0.974;2023-02-14T12:26:32;101552.47;;;8.24;100.00
51439;BME280;38816;51.142;-0.974;2023-02-14T12:31:36;101535.72;;;8.13;100.00
51439;BME280;38816;51.142;-0.974;2023-02-14T12:34:03;101534.47;;;8.05;100.00
51439;BME280;38816;51.142;-0.974;2023-02-14T12:39:26;101538.34;;;7.97;100.00
51439;BME280;38816;51.142;-0.974;2023-02-14T12:44:50;101546.13;;;7.98;100.00
51439;BME280;38816;51.142;-0.974;2023-02-14T12:47:26;101528.69;;;7.91;100.00
51439;BME280;38816;51.142;-0.974;2023-02-14T12:50:14;101534.13;;;8.15;100.00
51439;BME280;38816;51.142;-0.974;2023-02-14T13:01:38;101506.41;;;8.82;100.00
51439;BME280;38816;51.142;-0.974;2023-02-14T13:04:25;101517.63;;;9.04;100.00
51439;BME280;38816;51.142;-0.974;2023-02-14T13:09:44;101517.09;;;9.32;100.00
51439;BME280;38816;51.142;-0.974;2023-02-14T13:12:37;101496.88;;;9.39;100.00
51439;BME280;38816;51.142;-0.974;2023-02-14T13:18:17;101502.44;;;9.71;100.00
51439;BME280;38816;51.142;-0.974;2023-02-14T13:20:57;101485.47;;;9.75;100.00
51439;BME280;38816;51.142;-0.974;2023-02-14T13:23:40;101486.94;;;9.90;100.00
51439;BME280;38816;51.142;-0.974;2023-02-14T13:28:46;101484.13;;;10.05;100.00
51439;BME280;38816;51.142;-0.974;2023-02-14T13:31:13;101471.38;;;10.08;100.00
51439;BME280;38816;51.142;-0.974;2023-02-14T13:33:43;101468.28;;;10.17;100.00
51439;BME280;38816;51.142;-0.974;2023-02-14T13:36:12;101474.03;;;10.32;100.00
51439;BME280;38816;51.142;-0.974;2023-02-14T13:38:44;101467.38;;;10.37;100.00
51439;BME280;38816;51.142;-0.974;2023-02-14T13:41:13;101453.84;;;10.43;100.00
51439;BME280;38816;51.142;-0.974;2023-02-14T13:46:20;101463.25;;;10.67;100.00
51439;BME280;38816;51.142;-0.974;2023-02-14T13:48:59;101449.59;;;10.68;100.00
51439;BME280;38816;51.142;-0.974;2023-02-14T13:51:48;101459.56;;;10.82;100.00
51439;BME280;38816;51.142;-0.974;2023-02-14T13:54:21;101456.34;;;10.89;100.00
51439;BME280;38816;51.142;-0.974;2023-02-14T13:56:52;101450.50;;;10.94;100.00
51439;BME280;38816;51.142;-0.974;2023-02-14T14:01:50;101439.25;;;10.90;100.00
51439;BME280;38816;51.142;-0.974;2023-02-14T14:15:09;101434.03;;;11.14;100.00
51439;BME280;38816;51.142;-0.974;2023-02-14T14:22:52;101425.59;;;11.18;100.00
51439;BME280;38816;51.142;-0.974;2023-02-14T14:27:59;101418.72;;;11.17;100.00
51439;BME280;38816;51.142;-0.974;2023-02-14T14:30:29;101415.16;;;11.13;100.00
51439;BME280;38816;51.142;-0.974;2023-02-14T14:35:38;101414.06;;;11.07;100.00
51439;BME280;38816;51.142;-0.974;2023-02-14T14:38:04;101419.19;;;11.07;100.00
51439;BME280;38816;51.142;-0.974;2023-02-14T14:40:32;101420.16;;;11.09;100.00
51439;BME280;38816;51.142;-0.974;2023-02-14T14:43:04;101410.47;;;11.02;100.00
51439;BME280;38816;51.142;-0.974;2023-02-14T14:45:30;101413.97;;;11.04;100.00
51439;BME280;38816;51.142;-0.974;2023-02-14T14:47:57;101403.47;;;10.98;100.00
51439;BME280;38816;51.142;-0.974;2023-02-14T14:50:29;101401.72;;;10.97;100.00
51439;BME280;38816;51.142;-0.974;2023-02-14T14:53:01;101407.75;;;10.97;100.00
51439;BME280;38816;51.142;-0.974;2023-02-14T14:55:33;101406.75;;;10.94;100.00
51439;BME280;38816;51.142;-0.974;2023-02-14T14:58:02;101398.00;;;10.88;100.00
51439;BME280;38816;51.142;-0.974;2023-02-14T15:00:31;101390.69;;;10.75;100.00
51439;BME280;38816;51.142;-0.974;2023-02-14T15:05:38;101391.56;;;10.76;100.00
51439;BME280;38816;51.142;-0.974;2023-02-14T15:08:28;101384.50;;;10.69;100.00